Time;durP1;ratioP1;P1;durP2;ratioP2;P2;SDS_P1;SDS_P2;PMS_P1;PMS_P2;Temp;Humidity;BMP_temperature;BMP_pressure;BME280_temperature;BME280_humidity;BME280_pressure;Samples;Min_cycle;Max_cycle;Signal;HPM_P1;HPM_P2
2021/09/20 00:33:19;;;;;;;10.45;6.55;;;;;;;10.00;100.00;101839.53;2615362;36;20027;-76
2021/09/20 00:35:49;;;;;;;11.00;7.03;;;;;;;10.05;100.00;101852.66;2634239;36;20431;-75
2021/09/20 00:38:18;;;;;;;10.45;6.80;;;;;;;10.05;100.00;101847.28;2616377;36;20030;-76
2021/09/20 00:40:47;;;;;;;9.18;6.57;;;;;;;9.96;100.00;101848.78;2616821;36;20023;-78
2021/09/20 00:43:28;;;;;;;;;;;;;;;;;;;;;
2021/09/20 00:48:38;;;;;;;9.85;7.00;;;;;;;9.71;100.00;101856.84;2613530;36;20530;-79
2021/09/20 00:51:06;;;;;;;10.75;6.68;;;;;;;9.76;100.00;101866.31;2616710;36;20521;-75
2021/09/20 00:53:37;;;;;;;11.73;7.23;;;;;;;9.77;100.00;101873.41;2616914;36;20462;-78
2021/09/20 00:56:06;;;;;;;11.13;6.72;;;;;;;9.73;100.00;101863.84;2617195;36;20343;-75
2021/09/20 00:58:38;;;;;;;11.15;6.75;;;;;;;9.65;100.00;101866.19;2616895;36;20027;-76
2021/09/20 01:01:09;;;;;;;11.73;7.07;;;;;;;9.60;100.00;101868.34;2617007;36;20056;-75
2021/09/20 01:03:43;;;;;;;9.23;6.05;;;;;;;9.59;100.00;101866.63;2617348;36;20403;-76
2021/09/20 01:06:16;;;;;;;12.75;7.68;;;;;;;9.61;100.00;101875.44;2617294;36;20439;-79
2021/09/20 01:11:29;;;;;;;8.95;6.72;;;;;;;9.33;100.00;101877.28;2618072;36;20030;-75
2021/09/20 01:13:58;;;;;;;8.35;6.60;;;;;;;9.35;100.00;101877.19;2617642;36;20030;-75
2021/09/20 01:16:27;;;;;;;10.57;6.82;;;;;;;9.32;100.00;101874.72;2617432;36;20022;-78
2021/09/20 01:18:58;;;;;;;10.73;7.60;;;;;;;9.14;100.00;101874.97;2617519;36;20031;-77
2021/09/20 01:21:26;;;;;;;12.25;6.95;;;;;;;9.24;100.00;101883.28;2617325;36;20471;-75
2021/09/20 01:23:57;;;;;;;10.70;7.03;;;;;;;9.28;100.00;101882.13;2617391;36;20037;-75
2021/09/20 01:26:26;;;;;;;12.23;7.30;;;;;;;9.17;100.00;101884.66;2617558;36;20097;-77
2021/09/20 01:28:54;;;;;;;11.05;7.07;;;;;;;9.15;100.00;101881.22;2617291;36;20816;-75
2021/09/20 01:31:22;;;;;;;8.02;6.00;;;;;;;9.15;100.00;101883.91;2617233;36;20030;-75
2021/09/20 01:33:51;;;;;;;9.57;6.68;;;;;;;9.09;100.00;101879.81;2617768;36;20026;-75
2021/09/20 01:36:19;;;;;;;10.82;6.97;;;;;;;9.04;100.00;101872.06;2617055;36;20030;-75
2021/09/20 01:38:47;;;;;;;15.15;7.25;;;;;;;8.99;100.00;101874.16;2617256;36;20069;-75
2021/09/20 01:41:18;;;;;;;11.00;7.25;;;;;;;9.00;100.00;101875.91;2617465;36;20065;-78
2021/09/20 01:43:46;;;;;;;11.02;6.97;;;;;;;9.00;100.00;101875.03;2617396;36;20062;-77
2021/09/20 01:46:16;;;;;;;10.40;6.88;;;;;;;9.01;100.00;101880.31;2614912;36;20034;-76
2021/09/20 01:48:44;;;;;;;;;;;;;;;8.95;100.00;101886.06;2617743;36;20034;-77
2021/09/20 01:51:13;;;;;;;11.73;7.22;;;;;;;8.91;100.00;101889.94;2617249;36;19970;-75
2021/09/20 01:53:41;;;;;;;10.98;7.22;;;;;;;8.94;100.00;101887.91;2617250;36;20034;-76
2021/09/20 01:56:10;;;;;;;11.23;7.18;;;;;;;8.92;100.00;101881.78;2617216;36;20570;-80
2021/09/20 01:59:05;;;;;;;12.15;7.28;;;;;;;8.91;100.00;101880.03;2617078;36;20070;-76
2021/09/20 02:01:34;;;;;;;13.50;8.38;;;;;;;8.84;100.00;101886.78;2617201;36;20038;-76
2021/09/20 02:04:02;;;;;;;13.93;8.83;;;;;;;8.84;100.00;101889.47;2617324;36;20058;-77
2021/09/20 02:06:31;;;;;;;11.07;7.70;;;;;;;8.83;100.00;101887.72;2617144;36;20090;-80
2021/09/20 02:08:59;;;;;;;13.07;8.32;;;;;;;8.77;100.00;101886.31;2617521;36;20046;-77
2021/09/20 02:11:28;;;;;;;13.73;8.75;;;;;;;8.74;100.00;101886.50;2617035;36;20034;-76
2021/09/20 02:13:58;;;;;;;14.32;8.80;;;;;;;8.72;100.00;101880.38;2617318;36;20023;-77
2021/09/20 02:16:31;;;;;;;13.02;9.15;;;;;;;8.70;100.00;101885.00;2634583;36;20023;-76
2021/09/20 02:19:12;;;;;;;13.98;9.57;;;;;;;8.62;100.00;101884.63;2618080;31;20625;-76
2021/09/20 02:21:47;;;;;;;15.90;9.63;;;;;;;8.68;100.00;101886.91;2617128;36;20022;-78
2021/09/20 02:24:15;;;;;;;13.80;9.40;;;;;;;8.64;100.00;101896.09;2617340;36;20022;-76
2021/09/20 02:27:22;;;;;;;12.27;8.30;;;;;;;8.55;100.00;101894.00;2634926;36;20030;-76
2021/09/20 02:30:15;;;;;;;13.73;9.55;;;;;;;8.61;100.00;101896.28;2634148;36;20690;-78
2021/09/20 02:33:10;;;;;;;16.08;9.82;;;;;;;8.59;100.00;101892.84;2652079;36;20065;-76
2021/09/20 02:38:46;;;;;;;15.27;9.48;;;;;;;8.52;100.00;101908.47;2616258;36;20564;-79
2021/09/20 02:41:19;;;;;;;14.77;10.43;;;;;;;8.61;100.00;101907.03;2634982;36;20042;-76
2021/09/20 02:43:48;;;;;;;15.15;10.43;;;;;;;8.55;100.00;101902.06;2617332;36;20046;-76
2021/09/20 02:46:16;;;;;;;17.63;11.10;;;;;;;8.53;100.00;101904.00;2635110;36;20082;-80
2021/09/20 02:48:47;;;;;;;16.88;11.27;;;;;;;8.48;100.00;101916.81;2616689;36;20022;-79
2021/09/20 02:51:16;;;;;;;17.20;10.27;;;;;;;8.48;100.00;101906.97;2616861;36;20034;-76
2021/09/20 02:53:44;;;;;;;18.92;10.93;;;;;;;8.58;100.00;101902.75;2617859;31;20533;-78
2021/09/20 02:56:12;;;;;;;15.35;10.55;;;;;;;8.54;100.00;101911.94;2635124;36;20022;-76
2021/09/20 02:58:43;;;;;;;16.83;10.48;;;;;;;8.47;100.00;101909.75;2634769;36;20585;-76
2021/09/20 03:01:37;;;;;;;14.85;11.02;;;;;;;8.48;100.00;101912.34;2634334;36;20023;-77
2021/09/20 03:07:47;;;;;;;18.10;11.15;;;;;;;8.53;100.00;101920.09;2633322;36;20159;-77
2021/09/20 03:28:28;;;;;;;17.37;12.33;;;;;;;8.35;100.00;101935.50;2346998;36;15056820;-77
2021/09/20 03:34:16;;;;;;;17.90;12.25;;;;;;;8.31;100.00;101934.81;2636479;36;20026;-74
2021/09/20 03:36:44;;;;;;;17.45;12.23;;;;;;;8.28;100.00;101936.81;2620610;36;20074;-76
2021/09/20 03:42:30;;;;;;;19.88;12.48;;;;;;;8.25;100.00;101938.72;2656944;36;20030;-77
2021/09/20 03:45:43;;;;;;;17.98;12.35;;;;;;;8.27;100.00;101941.31;2638373;36;20173;-75
2021/09/20 03:48:26;;;;;;;;;;;;;;;;;;;;;
2021/09/20 03:51:03;;;;;;;22.38;13.82;;;;;;;8.27;100.00;101938.63;2621462;36;20030;-78
2021/09/20 03:53:42;;;;;;;18.58;12.13;;;;;;;8.28;100.00;101940.34;2620982;36;20037;-75
2021/09/20 03:56:23;;;;;;;22.80;14.25;;;;;;;8.21;100.00;101939.84;2656703;36;20030;-78
2021/09/20 03:58:55;;;;;;;23.38;13.45;;;;;;;8.19;100.00;101938.25;2636853;36;20022;-75
2021/09/20 04:01:29;;;;;;;21.40;12.73;;;;;;;8.19;100.00;101939.09;2639030;36;20038;-75
2021/09/20 04:04:03;;;;;;;17.65;13.15;;;;;;;8.18;100.00;101937.38;2621074;36;20046;-75
2021/09/20 04:06:47;;;;;;;21.30;13.15;;;;;;;8.13;100.00;101944.84;2656008;36;20049;-77
2021/09/20 04:09:17;;;;;;;19.33;13.00;;;;;;;8.14;100.00;101940.34;2620697;36;20057;-75
2021/09/20 04:12:09;;;;;;;20.35;13.02;;;;;;;8.09;100.00;101945.97;2620803;36;20030;-75
2021/09/20 04:14:39;;;;;;;20.45;13.52;;;;;;;8.03;100.00;101951.72;2639184;36;20037;-74
2021/09/20 04:17:15;;;;;;;21.73;13.77;;;;;;;8.00;100.00;101952.75;2620499;36;20038;-75
2021/09/20 04:19:56;;;;;;;20.60;12.82;;;;;;;7.97;100.00;101952.94;2621454;36;20056;-78
2021/09/20 04:22:24;;;;;;;18.77;12.27;;;;;;;7.86;100.00;101953.59;2620946;36;20065;-78
2021/09/20 04:24:54;;;;;;;23.45;14.15;;;;;;;7.86;100.00;101958.97;2639309;36;20034;-76
2021/09/20 04:27:23;;;;;;;19.50;12.40;;;;;;;7.83;100.00;101956.47;2618698;36;20030;-75
2021/09/20 04:30:09;;;;;;;19.27;12.82;;;;;;;7.85;100.00;101962.59;2634541;36;20044;-78
2021/09/20 04:32:43;;;;;;;18.75;12.20;;;;;;;7.80;100.00;101963.81;2634514;36;20035;-80
2021/09/20 04:35:16;;;;;;;19.83;12.68;;;;;;;7.76;100.00;101967.63;2617399;36;20061;-76
2021/09/20 04:37:46;;;;;;;18.38;12.60;;;;;;;7.75;100.00;101972.13;2617680;36;20029;-76
2021/09/20 04:40:26;;;;;;;21.60;12.73;;;;;;;7.67;100.00;101969.91;2617975;36;20038;-76
2021/09/20 04:42:54;;;;;;;;;;;;;;;7.64;100.00;101964.72;2617905;36;20435;-76
2021/09/20 04:45:22;;;;;;;18.02;11.38;;;;;;;7.76;100.00;101972.97;2617523;36;19950;-76
2021/09/20 04:47:50;;;;;;;18.75;11.68;;;;;;;7.71;100.00;101970.56;2617435;36;20027;-79
2021/09/20 04:50:23;;;;;;;19.17;12.13;;;;;;;7.66;100.00;101976.22;2617453;31;20074;-75
2021/09/20 04:52:55;;;;;;;19.35;12.25;;;;;;;7.76;100.00;101975.66;2617827;31;20022;-79
2021/09/20 04:55:27;;;;;;;19.42;12.90;;;;;;;7.72;100.00;101978.53;2634379;36;20035;-76
2021/09/20 04:57:58;;;;;;;20.25;13.63;;;;;;;7.68;100.00;101982.34;2617381;36;20058;-75
2021/09/20 05:00:28;;;;;;;18.70;11.95;;;;;;;7.67;100.00;101990.47;2617349;36;20544;-75
2021/09/20 05:02:56;;;;;;;17.15;11.68;;;;;;;7.63;100.00;101989.78;2618441;31;20155;-76
2021/09/20 05:05:27;;;;;;;19.95;11.98;;;;;;;7.65;100.00;101990.56;2617048;36;20061;-79
2021/09/20 05:07:55;;;;;;;19.00;12.30;;;;;;;7.67;100.00;101996.72;2617516;36;20034;-76
2021/09/20 05:10:24;;;;;;;20.17;12.77;;;;;;;7.66;100.00;101996.78;2617460;36;20163;-78
2021/09/20 05:12:56;;;;;;;17.48;12.00;;;;;;;7.65;100.00;101997.75;2617077;36;20023;-76
2021/09/20 05:15:36;;;;;;;;;;;;;;;;;;;;;
2021/09/20 05:18:05;;;;;;;21.80;13.07;;;;;;;7.62;100.00;101996.09;2634750;36;20026;-75
2021/09/20 05:20:36;;;;;;;21.00;12.05;;;;;;;7.61;100.00;102006.91;2616989;36;20030;-74
2021/09/20 05:23:16;;;;;;;;;;;;;;;;;;;;;
2021/09/20 05:25:46;;;;;;;19.75;12.25;;;;;;;7.60;100.00;102006.03;2634424;36;20759;-76
2021/09/20 05:28:17;;;;;;;22.30;13.18;;;;;;;7.60;100.00;102016.78;2635618;36;20026;-79
2021/09/20 05:30:51;;;;;;;19.90;11.75;;;;;;;7.62;100.00;102014.00;2617686;36;20019;-76
2021/09/20 05:34:01;;;;;;;;;;;;;;;;;;;;;
2021/09/20 05:46:16;;;;;;;22.17;11.70;;;;;;;7.65;100.00;102020.03;2616391;36;20053;-76
2021/09/20 05:48:45;;;;;;;19.05;12.05;;;;;;;7.67;100.00;102028.88;2634633;36;20046;-80
2021/09/20 05:51:14;;;;;;;22.40;12.00;;;;;;;7.66;100.00;102024.44;2616968;36;20607;-75
2021/09/20 05:53:45;;;;;;;19.83;13.10;;;;;;;7.75;100.00;102022.19;2617061;36;20061;-75
2021/09/20 05:56:14;;;;;;;23.33;12.70;;;;;;;7.72;100.00;102024.09;2616828;36;20576;-75
2021/09/20 05:58:48;;;;;;;19.50;12.45;;;;;;;7.80;100.00;102022.78;2616463;36;20596;-75
2021/09/20 06:04:27;;;;;;;19.70;12.43;;;;;;;7.91;100.00;102027.53;2617124;31;20540;-78
2021/09/20 06:06:56;;;;;;;20.98;13.02;;;;;;;7.95;100.00;102027.25;2617079;31;20026;-75
2021/09/20 06:09:27;;;;;;;22.45;13.40;;;;;;;8.02;100.00;102025.94;2615602;36;20041;-75
2021/09/20 06:11:55;;;;;;;21.13;12.90;;;;;;;8.03;100.00;102029.47;2614234;36;20167;-75
2021/09/20 06:14:25;;;;;;;19.70;11.98;;;;;;;8.10;100.00;102035.31;2615844;31;20060;-76
2021/09/20 06:16:53;;;;;;;19.15;11.15;;;;;;;8.17;100.00;102031.31;2616882;36;20022;-75
2021/09/20 06:19:21;;;;;;;20.20;12.48;;;;;;;8.25;100.00;102031.75;2616214;36;20534;-76
2021/09/20 06:27:45;;;;;;;19.58;12.93;;;;;;;8.47;100.00;102030.50;2615730;36;20524;-75
2021/09/20 06:30:15;;;;;;;18.77;13.25;;;;;;;8.54;100.00;102029.16;2616486;36;20110;-75
2021/09/20 06:32:44;;;;;;;19.58;12.90;;;;;;;8.54;100.00;102024.66;2614902;54;20163;-75
2021/09/20 06:38:10;;;;;;;20.98;12.70;;;;;;;8.61;100.00;102030.47;2616578;36;20423;-78
2021/09/20 06:41:11;;;;;;;18.10;11.32;;;;;;;8.80;100.00;102034.72;2616225;36;20102;-75
2021/09/20 06:44:09;;;;;;;16.65;11.82;;;;;;;8.92;100.00;102040.19;2616601;36;20114;-76
2021/09/20 07:00:14;;;;;;;18.20;10.50;;;;;;;9.33;100.00;102049.25;2680633;36;20030;-75
2021/09/20 15:34:44;;;;;;;1.83;1.35;;;;;;;16.52;94.92;102290.22;2613502;36;20405;-76
2021/09/20 15:37:12;;;;;;;3.65;1.55;;;;;;;16.68;94.80;102288.78;2617704;36;20038;-76
2021/09/20 15:39:41;;;;;;;2.22;1.50;;;;;;;16.51;89.01;102282.19;2616869;36;20038;-77
2021/09/20 15:42:09;;;;;;;2.90;1.70;;;;;;;16.55;82.41;102279.06;2616884;36;20130;-75
2021/09/20 15:44:39;;;;;;;2.47;1.45;;;;;;;16.00;93.29;102284.03;2616888;36;20039;-76
2021/09/20 15:47:10;;;;;;;4.10;1.55;;;;;;;15.74;100.00;102290.75;2634845;36;20034;-75
2021/09/20 15:49:45;;;;;;;3.40;1.45;;;;;;;15.88;100.00;102296.84;2617941;36;20447;-77
2021/09/20 15:58:16;;;;;;;2.10;1.45;;;;;;;15.48;100.00;102322.03;2618089;36;20151;-75
2021/09/20 16:00:47;;;;;;;2.67;1.63;;;;;;;15.29;100.00;102315.47;2616045;36;20022;-79
2021/09/20 16:03:28;;;;;;;2.40;1.33;;;;;;;15.27;100.00;102322.88;2617073;36;20030;-75
2021/09/20 16:09:15;;;;;;;2.33;1.50;;;;;;;15.14;100.00;102333.06;2634192;36;20063;-74
2021/09/20 16:11:46;;;;;;;1.90;1.30;;;;;;;15.12;100.00;102335.03;2617836;36;20091;-75
2021/09/20 16:14:32;;;;;;;3.05;1.60;;;;;;;14.91;100.00;102338.56;2616900;36;20074;-77
2021/09/20 16:19:29;;;;;;;3.65;1.73;;;;;;;14.83;100.00;102333.78;2616199;46;20030;-78
2021/09/20 16:21:58;;;;;;;4.65;1.65;;;;;;;14.75;100.00;102338.13;2616175;36;20052;-75
2021/09/20 16:24:29;;;;;;;4.95;1.65;;;;;;;14.78;100.00;102332.44;2613669;36;20118;-77
2021/09/20 16:26:57;;;;;;;2.33;1.75;;;;;;;14.66;100.00;102340.63;2616142;31;20145;-76
2021/09/20 16:29:32;;;;;;;2.92;1.50;;;;;;;14.52;100.00;102346.28;2617290;36;20508;-78
2021/09/20 16:32:11;;;;;;;3.35;1.60;;;;;;;14.35;100.00;102351.22;2616176;36;20038;-76
2021/09/20 16:34:43;;;;;;;2.20;1.20;;;;;;;14.34;100.00;102344.06;2616725;36;20022;-75
2021/09/20 16:37:41;;;;;;;2.88;1.77;;;;;;;14.10;100.00;102351.47;2617881;36;20457;-75
2021/09/20 16:45:22;;;;;;;3.38;1.90;;;;;;;14.24;100.00;102353.94;2614517;31;20472;-75
2021/09/20 16:47:54;;;;;;;2.53;1.63;;;;;;;14.42;100.00;102361.56;2616753;36;20053;-77
2021/09/20 16:50:35;;;;;;;2.47;1.58;;;;;;;14.50;100.00;102367.19;2616728;36;20039;-75
2021/09/20 16:53:08;;;;;;;2.90;1.60;;;;;;;14.43;100.00;102368.66;2617252;36;20029;-76
2021/09/20 16:55:40;;;;;;;3.03;1.58;;;;;;;14.48;100.00;102371.88;2617235;36;20074;-76
2021/09/20 16:58:20;;;;;;;2.30;1.50;;;;;;;14.28;100.00;102370.78;2636011;31;20489;-76
2021/09/20 17:00:49;;;;;;;2.45;1.75;;;;;;;14.30;100.00;102366.97;2617489;39;20499;-77
2021/09/20 17:03:28;;;;;;;2.97;1.80;;;;;;;14.16;100.00;102375.31;2616637;31;20548;-76
2021/09/20 17:05:56;;;;;;;;;;;;;;;14.22;100.00;102374.84;2616457;36;20327;-76
2021/09/20 17:08:42;;;;;;;3.42;1.70;;;;;;;14.27;100.00;102386.16;2631793;36;19958;-80
2021/09/20 17:11:15;;;;;;;3.22;2.03;;;;;;;14.31;100.00;102381.34;2633084;36;20038;-76
2021/09/20 17:21:20;;;;;;;3.17;1.45;;;;;;;14.24;100.00;102407.25;2631890;36;20570;-82
2021/09/20 17:24:01;;;;;;;3.35;1.92;;;;;;;14.20;100.00;102396.63;2635589;31;20532;-77
2021/09/20 17:26:32;;;;;;;5.00;2.33;;;;;;;14.23;100.00;102409.06;2635206;36;20579;-77
2021/09/20 17:29:01;;;;;;;3.55;1.95;;;;;;;14.16;100.00;102415.94;2616993;36;20067;-77
2021/09/20 17:31:34;;;;;;;5.05;2.08;;;;;;;14.08;100.00;102413.00;2635331;36;20043;-77
2021/09/20 17:34:02;;;;;;;2.97;1.60;;;;;;;14.07;100.00;102417.53;2634956;36;20567;-77
2021/09/20 17:36:30;;;;;;;3.90;1.77;;;;;;;13.93;100.00;102424.03;2634935;36;20082;-79
2021/09/20 17:38:59;;;;;;;4.00;1.80;;;;;;;13.83;100.00;102426.59;2617515;36;20149;-77
2021/09/20 17:41:27;;;;;;;3.30;1.67;;;;;;;13.81;100.00;102428.56;2617420;36;20306;-76
2021/09/20 17:44:00;;;;;;;4.10;2.03;;;;;;;13.87;100.00;102435.34;2613725;36;20023;-77
2021/09/20 17:46:43;;;;;;;4.53;1.92;;;;;;;13.83;100.00;102441.97;2616261;36;20288;-80
2021/09/20 17:49:11;;;;;;;2.67;1.85;;;;;;;13.78;100.00;102446.88;2616325;36;20062;-79
2021/09/20 17:51:47;;;;;;;2.50;1.77;;;;;;;13.71;100.00;102445.63;2616454;36;20039;-80
2021/09/20 17:54:15;;;;;;;7.53;2.28;;;;;;;13.67;100.00;102443.13;2616907;36;20142;-78
2021/09/20 17:56:43;;;;;;;3.33;2.15;;;;;;;13.65;100.00;102450.53;2616097;36;20023;-78
2021/09/20 17:59:15;;;;;;;3.53;2.63;;;;;;;13.53;100.00;102451.47;2616279;36;20057;-77
2021/09/20 18:01:44;;;;;;;3.60;2.00;;;;;;;13.56;100.00;102462.06;2617615;36;20085;-78
2021/09/20 18:04:13;;;;;;;2.70;1.98;;;;;;;13.57;100.00;102460.22;2616507;36;20023;-75
2021/09/20 18:06:45;;;;;;;3.35;2.00;;;;;;;13.63;100.00;102471.44;2616580;31;20034;-75
2021/09/20 18:09:14;;;;;;;4.15;2.00;;;;;;;13.60;100.00;102468.97;2616507;36;20065;-77
2021/09/20 18:11:42;;;;;;;3.60;1.90;;;;;;;13.56;100.00;102472.00;2615683;36;20094;-76
2021/09/20 18:14:12;;;;;;;3.20;2.00;;;;;;;13.60;100.00;102474.38;2616618;36;20871;-76
2021/09/20 18:16:43;;;;;;;4.30;2.03;;;;;;;13.54;100.00;102473.97;2615085;36;20038;-77
2021/09/20 18:19:14;;;;;;;9.63;2.40;;;;;;;13.54;100.00;102474.81;2615664;36;20042;-76
2021/09/20 18:21:43;;;;;;;4.45;1.95;;;;;;;13.45;100.00;102470.13;2615685;36;20539;-79
2021/09/20 18:24:21;;;;;;;5.65;2.05;;;;;;;13.48;100.00;102488.81;2615573;36;20023;-76
2021/09/20 18:26:49;;;;;;;2.85;2.03;;;;;;;13.46;100.00;102494.34;2615638;36;20039;-76
2021/09/20 18:29:17;;;;;;;3.30;1.80;;;;;;;13.48;100.00;102496.94;2634048;36;20034;-79
2021/09/20 18:31:50;;;;;;;3.55;2.22;;;;;;;13.51;100.00;102496.69;2615725;36;20046;-77
2021/09/20 18:34:18;;;;;;;6.22;2.80;;;;;;;13.33;100.00;102502.47;2616098;36;20431;-76
2021/09/20 18:36:47;;;;;;;6.80;2.10;;;;;;;13.38;100.00;102504.00;2616711;36;20031;-76
2021/09/20 18:39:15;;;;;;;4.20;2.20;;;;;;;13.36;100.00;102503.25;2616972;36;20275;-81
2021/09/20 18:41:54;;;;;;;3.88;2.15;;;;;;;13.39;100.00;102506.59;2616413;36;20078;-80
2021/09/20 18:44:22;;;;;;;4.25;2.20;;;;;;;13.39;100.00;102511.16;2617288;36;20046;-77
2021/09/20 18:46:53;;;;;;;7.90;2.05;;;;;;;13.19;100.00;102502.66;2616130;36;20041;-77
2021/09/20 18:49:21;;;;;;;5.05;2.28;;;;;;;13.16;100.00;102502.84;2616190;36;20022;-76
2021/09/20 18:51:49;;;;;;;4.32;2.40;;;;;;;13.13;100.00;102501.25;2615766;36;20610;-77
2021/09/20 18:54:18;;;;;;;5.00;2.55;;;;;;;13.10;100.00;102504.19;2616399;36;20566;-77
2021/09/20 18:56:46;;;;;;;4.60;2.50;;;;;;;13.13;100.00;102508.47;2615759;31;20074;-74
2021/09/20 18:59:14;;;;;;;5.93;2.10;;;;;;;13.16;100.00;102513.66;2616287;36;20022;-79
2021/09/20 19:01:43;;;;;;;3.88;2.22;;;;;;;13.22;100.00;102517.75;2615655;36;20034;-76
2021/09/20 19:04:14;;;;;;;3.58;2.22;;;;;;;13.02;100.00;102528.19;2615989;36;20053;-76
2021/09/20 19:06:42;;;;;;;4.88;2.95;;;;;;;12.91;100.00;102528.97;2616142;36;20055;-78
2021/09/20 19:09:11;;;;;;;4.30;3.17;;;;;;;12.79;100.00;102533.44;2616446;36;20043;-77
2021/09/20 19:11:39;;;;;;;5.33;3.30;;;;;;;12.59;100.00;102531.28;2616128;36;20030;-78
2021/09/20 19:14:07;;;;;;;4.50;3.40;;;;;;;12.42;100.00;102529.75;2616255;36;20034;-81
2021/09/20 19:16:39;;;;;;;5.03;3.20;;;;;;;12.36;100.00;102531.03;2615566;36;20054;-76
2021/09/20 19:19:13;;;;;;;9.25;3.80;;;;;;;12.15;100.00;102533.38;2616544;36;20038;-77
2021/09/20 19:21:47;;;;;;;7.28;3.75;;;;;;;11.95;100.00;102532.03;2616981;36;20424;-75
2021/09/20 19:24:16;;;;;;;8.73;3.45;;;;;;;11.82;100.00;102529.28;2616373;36;20568;-81
2021/09/20 19:26:47;;;;;;;4.75;3.45;;;;;;;11.65;100.00;102529.56;2615098;36;20042;-77
2021/09/20 19:29:17;;;;;;;5.50;3.53;;;;;;;11.42;100.00;102537.31;2615784;36;20023;-78
2021/09/20 19:31:47;;;;;;;5.90;3.75;;;;;;;11.34;100.00;102536.97;2615772;36;20171;-77
2021/09/20 19:34:16;;;;;;;5.63;3.08;;;;;;;11.18;100.00;102543.34;2616142;36;20033;-80
2021/09/20 19:39:29;;;;;;;6.47;3.55;;;;;;;11.01;100.00;102546.25;2615212;36;20030;-76
2021/09/20 19:41:59;;;;;;;5.77;4.33;;;;;;;10.93;100.00;102548.56;2616130;36;20026;-79
2021/09/20 19:44:28;;;;;;;6.50;4.65;;;;;;;10.83;100.00;102564.44;2621031;36;20270;-76
2021/09/20 19:46:56;;;;;;;6.20;4.70;;;;;;;10.73;100.00;102557.91;2616997;36;20250;-77
2021/09/20 19:49:25;;;;;;;7.07;5.53;;;;;;;10.66;100.00;102558.28;2616691;36;20042;-77
2021/09/20 19:51:57;;;;;;;8.35;5.80;;;;;;;10.60;100.00;102558.66;2615343;36;20034;-77
2021/09/20 19:54:30;;;;;;;7.20;4.88;;;;;;;10.47;100.00;102546.91;2618630;36;20023;-77
2021/09/20 19:57:03;;;;;;;10.00;4.70;;;;;;;10.38;100.00;102550.16;2615715;36;20023;-77
2021/09/20 19:59:31;;;;;;;6.88;4.50;;;;;;;10.36;100.00;102555.63;2613638;36;20022;-80
2021/09/20 20:02:01;;;;;;;5.57;4.33;;;;;;;10.27;100.00;102556.16;2615588;36;20034;-77
2021/09/20 20:04:47;;;;;;;;;;;;;;;;;;;;;
2021/09/20 20:07:19;;;;;;;7.95;5.00;;;;;;;10.09;100.00;102548.22;2636259;36;20034;-78
2021/09/20 20:09:48;;;;;;;8.50;6.10;;;;;;;10.08;100.00;102553.69;2616278;36;20460;-76
2021/09/20 20:15:01;;;;;;;9.90;6.45;;;;;;;10.09;100.00;102559.00;2613772;36;20031;-77
2021/09/20 20:21:04;;;;;;;6.32;5.07;;;;;;;10.07;100.00;102566.28;2632150;36;20033;-77
2021/09/20 20:37:23;;;;;;;6.18;4.65;;;;;;;9.70;100.00;102595.34;2614706;36;20051;-76
2021/09/20 20:39:54;;;;;;;7.57;4.55;;;;;;;9.67;100.00;102606.25;2616231;36;20031;-77
2021/09/20 20:42:23;;;;;;;8.00;4.72;;;;;;;9.55;100.00;102607.81;2616341;36;20540;-77
2021/09/20 20:44:51;;;;;;;8.38;5.13;;;;;;;9.50;100.00;102619.78;2615186;36;20567;-76
2021/09/20 20:47:23;;;;;;;7.88;4.82;;;;;;;9.45;100.00;102620.03;2616588;36;20055;-76
2021/09/20 20:49:51;;;;;;;5.63;4.35;;;;;;;9.44;100.00;102626.38;2616374;36;20027;-75
2021/09/20 21:09:48;;;;;;;5.60;4.10;;;;;;;9.15;100.00;102679.00;2617199;36;20514;-76
2021/09/20 21:18:57;;;;;;;7.72;4.38;;;;;;;8.97;100.00;102676.34;2614151;54;20035;-78
2021/09/20 21:22:08;;;;;;;6.65;4.40;;;;;;;8.92;100.00;102673.03;2635578;31;20513;-76
2021/09/20 21:25:00;;;;;;;;;;;;;;;;;;;;;
2021/09/20 21:27:30;;;;;;;6.60;4.55;;;;;;;8.77;100.00;102680.94;2616456;36;20034;-76
2021/09/20 21:30:15;;;;;;;7.07;4.95;;;;;;;8.64;100.00;102674.44;2634613;36;20035;-76
2021/09/20 21:32:44;;;;;;;7.18;5.10;;;;;;;8.63;100.00;102671.84;2633794;36;20034;-77
2021/09/20 21:35:29;;;;;;;6.95;4.28;;;;;;;8.63;100.00;102675.41;2618324;31;20480;-77
2021/09/20 21:41:46;;;;;;;6.63;4.90;;;;;;;8.56;100.00;102677.53;2633336;36;20026;-77
2021/09/20 21:44:18;;;;;;;8.60;5.25;;;;;;;8.59;100.00;102687.25;2651732;36;20023;-76
2021/09/20 21:47:37;;;;;;;7.10;5.43;;;;;;;8.50;100.00;102682.38;2634079;36;20030;-79
2021/09/20 21:56:02;;;;;;;7.38;5.65;;;;;;;8.30;100.00;102668.09;2613617;54;20031;-77
2021/09/20 22:02:34;;;;;;;;;;;;;;;8.27;100.00;102665.56;2633669;36;20023;-79
2021/09/20 22:08:59;;;;;;;9.07;5.75;;;;;;;8.21;100.00;102663.19;2651686;36;20056;-76
2021/09/20 22:12:27;;;;;;;;;;;;;;;;;;;;;
2021/09/20 22:52:37;;;;;;;8.18;5.22;;;;;;;7.59;100.00;102754.59;2637122;36;20033;-76
2021/09/20 23:02:44;;;;;;;6.15;5.05;;;;;;;7.44;100.00;102755.28;2637419;36;20022;-80
2021/09/20 23:17:13;;;;;;;;;;;;;;;;;;;;;
2021/09/20 23:20:26;;;;;;;8.13;6.15;;;;;;;7.28;100.00;102739.03;2637154;36;20022;-76
2021/09/20 23:23:46;;;;;;;9.50;5.55;;;;;;;7.28;100.00;102750.59;2639383;36;20030;-76
2021/09/20 23:29:52;;;;;;;7.30;5.60;;;;;;;7.24;100.00;102756.16;2636856;36;20048;-76
2021/09/20 23:57:21;;;;;;;10.85;6.35;;;;;;;7.04;100.00;102762.38;2656466;36;20573;-77
